createdAt,value
2019-02-16T00:01:04.395Z,102396.23
2019-02-16T00:03:33.965Z,102389.91
2019-02-16T00:06:03.660Z,102391.75
2019-02-16T00:08:33.192Z,102392.06
2019-02-16T00:11:03.297Z,102384.02
2019-02-16T00:13:32.888Z,102381.72
2019-02-16T00:16:02.606Z,102381.22
2019-02-16T00:18:32.193Z,102379.98
2019-02-16T00:21:03.909Z,102378.52
2019-02-16T00:23:32.956Z,102374.17
2019-02-16T00:26:02.573Z,102371.69
2019-02-16T00:28:32.067Z,102367.19
2019-02-16T00:31:01.631Z,102368.91
2019-02-16T00:33:34.179Z,102368.89
2019-02-16T00:36:03.711Z,102367.94
2019-02-16T00:38:33.241Z,102364.91
2019-02-16T00:41:02.797Z,102359.48
2019-02-16T00:43:32.373Z,102359.14
2019-02-16T00:46:01.991Z,102355.81
2019-02-16T00:48:31.567Z,102361.03
2019-02-16T00:51:01.149Z,102357.58
2019-02-16T00:53:30.710Z,102352.61
2019-02-16T00:56:00.379Z,102346.52
2019-02-16T00:58:29.893Z,102348.91
2019-02-16T01:00:59.444Z,102345.42
2019-02-16T01:03:29.089Z,102340.94
2019-02-16T01:05:58.631Z,102331.92
2019-02-16T01:08:28.198Z,102339.06
2019-02-16T01:10:57.854Z,102341.61
2019-02-16T01:13:27.417Z,102342.37
2019-02-16T01:15:56.954Z,102335.27
2019-02-16T01:18:27.080Z,102330.20
2019-02-16T01:20:56.742Z,102330.73
2019-02-16T01:23:26.251Z,102324.64
2019-02-16T01:25:55.845Z,102319.89
2019-02-16T01:28:25.336Z,102318.00
2019-02-16T01:30:54.967Z,102307.70
2019-02-16T01:33:24.600Z,102306.19
2019-02-16T01:35:54.118Z,102299.88
2019-02-16T01:38:23.911Z,102302.21
2019-02-16T01:40:53.857Z,102301.16
2019-02-16T01:43:23.734Z,102301.14
2019-02-16T01:45:53.408Z,102300.21
2019-02-16T01:48:22.925Z,102296.07
2019-02-16T01:50:52.505Z,102292.09
2019-02-16T01:53:22.046Z,102295.20
2019-02-16T01:55:51.599Z,102290.84
2019-02-16T01:58:21.320Z,102290.91
2019-02-16T02:00:51.278Z,102282.17
2019-02-16T02:03:20.898Z,102288.34
2019-02-16T02:05:50.432Z,102287.95
2019-02-16T02:08:20.280Z,102282.97
2019-02-16T02:10:50.113Z,102279.22
2019-02-16T02:13:20.142Z,102276.80
2019-02-16T02:15:49.684Z,102272.05
2019-02-16T02:18:19.253Z,102267.99
2019-02-16T02:20:48.792Z,102264.90
2019-02-16T02:23:18.338Z,102259.05
2019-02-16T02:25:48.110Z,102250.08
2019-02-16T02:28:17.654Z,102254.70
2019-02-16T02:30:47.373Z,102246.66
2019-02-16T02:33:16.942Z,102247.03
2019-02-16T02:35:46.473Z,102240.70
2019-02-16T02:38:16.222Z,102235.27
2019-02-16T02:40:45.781Z,102236.27
2019-02-16T02:43:15.386Z,102236.13
2019-02-16T02:45:44.992Z,102232.85
2019-02-16T02:48:14.672Z,102232.77
2019-02-16T02:50:44.534Z,102233.88
2019-02-16T02:53:14.099Z,102229.87
2019-02-16T02:55:43.671Z,102234.12
2019-02-16T02:58:13.212Z,102240.34
2019-02-16T03:00:43.002Z,102241.18
2019-02-16T03:03:12.810Z,102239.61
2019-02-16T03:05:42.359Z,102237.30
2019-02-16T03:08:11.886Z,102229.67
2019-02-16T03:10:41.808Z,102226.98
2019-02-16T03:13:11.344Z,102230.95
2019-02-16T03:15:41.091Z,102231.02
2019-02-16T03:18:10.704Z,102223.77
2019-02-16T03:20:59.597Z,102224.18
2019-02-16T03:23:31.514Z,102227.16
2019-02-16T03:26:08.436Z,102216.03
2019-02-16T03:28:57.909Z,102223.31
2019-02-16T03:32:06.274Z,102212.69
2019-02-16T03:35:00.977Z,102213.78
2019-02-16T03:37:52.982Z,102218.38
2019-02-16T03:40:22.556Z,102214.59
2019-02-16T03:42:52.112Z,102219.02
2019-02-16T03:45:21.720Z,102212.64
2019-02-16T03:47:51.453Z,102209.51
2019-02-16T03:50:20.986Z,102206.23
2019-02-16T03:52:50.963Z,102206.84
2019-02-16T03:55:20.528Z,102202.09
2019-02-16T03:57:50.235Z,102194.39
2019-02-16T04:00:19.948Z,102203.19
2019-02-16T04:02:49.509Z,102200.81
2019-02-16T04:05:19.586Z,102202.13
2019-02-16T04:07:49.184Z,102193.68
2019-02-16T04:10:19.096Z,102196.06
2019-02-16T04:12:48.966Z,102184.92
2019-02-16T04:15:18.543Z,102177.69
2019-02-16T04:17:48.078Z,102177.28
2019-02-16T04:20:17.829Z,102174.69
2019-02-16T04:22:47.396Z,102169.28
2019-02-16T04:25:16.987Z,102170.08
2019-02-16T04:27:46.886Z,102167.97
2019-02-16T04:30:16.406Z,102175.40
2019-02-16T04:32:46.471Z,102175.98
2019-02-16T04:35:16.068Z,102164.89
2019-02-16T04:37:45.953Z,102168.91
2019-02-16T04:40:15.498Z,102170.38
2019-02-16T04:42:45.228Z,102169.52
2019-02-16T04:45:14.740Z,102169.39
2019-02-16T04:47:44.373Z,102159.08
2019-02-16T04:50:14.046Z,102158.64
2019-02-16T04:52:43.559Z,102149.84
2019-02-16T04:55:13.377Z,102153.11
2019-02-16T04:57:42.906Z,102157.36
2019-02-16T05:00:12.504Z,102150.75
2019-02-16T05:02:42.024Z,102150.88
2019-02-16T05:05:11.622Z,102148.18
2019-02-16T05:07:41.312Z,102143.43
2019-02-16T05:10:11.200Z,102145.37
2019-02-16T05:12:40.975Z,102146.17
2019-02-16T05:15:11.321Z,102141.86
2019-02-16T05:17:42.085Z,102144.06
2019-02-16T05:20:11.666Z,102144.38
2019-02-16T05:22:44.721Z,102136.14
2019-02-16T05:25:12.547Z,102146.62
2019-02-16T05:27:42.262Z,102145.42
2019-02-16T05:30:11.929Z,102144.73
2019-02-16T05:32:41.489Z,102147.29
2019-02-16T05:35:11.071Z,102147.22
2019-02-16T05:37:40.580Z,102143.94
2019-02-16T05:40:11.138Z,102138.55
2019-02-16T05:42:40.649Z,102138.84
2019-02-16T05:45:10.802Z,102135.49
2019-02-16T05:47:40.376Z,102135.14
2019-02-16T05:50:09.914Z,102139.15
2019-02-16T05:52:40.056Z,102137.28
2019-02-16T05:55:09.742Z,102147.39
2019-02-16T05:57:39.234Z,102140.29
2019-02-16T06:00:11.922Z,102143.53
2019-02-16T06:02:41.699Z,102151.14
2019-02-16T06:05:11.340Z,102150.80
2019-02-16T06:07:41.036Z,102145.91
2019-02-16T06:10:10.634Z,102143.11
2019-02-16T06:12:40.356Z,102145.59
2019-02-16T06:15:10.857Z,102146.42
2019-02-16T06:17:40.520Z,102139.45
2019-02-16T06:20:10.590Z,102149.25
2019-02-16T06:22:40.659Z,102139.36
2019-02-16T06:25:10.760Z,102135.94
2019-02-16T06:27:43.073Z,102150.42
2019-02-16T06:30:12.583Z,102143.56
2019-02-16T06:32:42.489Z,102150.09
2019-02-16T06:35:13.864Z,102158.02
2019-02-16T06:37:43.453Z,102155.33
2019-02-16T06:40:13.172Z,102160.78
2019-02-16T06:42:42.677Z,102160.89
2019-02-16T06:45:12.261Z,102170.86
2019-02-16T06:47:41.796Z,102164.88
2019-02-16T06:50:11.434Z,102176.73
2019-02-16T06:52:41.074Z,102172.88
2019-02-16T06:55:10.688Z,102179.58
2019-02-16T06:57:41.835Z,102180.03
2019-02-16T07:00:12.791Z,102168.45
2019-02-16T07:02:42.807Z,102173.95
2019-02-16T07:05:12.320Z,102172.22
2019-02-16T07:07:41.832Z,102174.64
2019-02-16T07:10:11.509Z,102169.20
2019-02-16T07:12:41.085Z,102173.39
2019-02-16T07:15:10.686Z,102162.61
2019-02-16T07:17:40.010Z,102157.97
2019-02-16T07:20:10.014Z,102160.88
2019-02-16T07:22:39.595Z,102164.85
2019-02-16T07:25:09.857Z,102158.26
2019-02-16T07:27:39.515Z,102149.40
2019-02-16T07:30:11.958Z,102147.19
2019-02-16T07:32:42.111Z,102148.06
2019-02-16T07:35:11.707Z,102146.48
2019-02-16T07:37:41.236Z,102141.91
2019-02-16T07:40:12.708Z,102136.34
2019-02-16T07:42:52.643Z,102138.35
2019-02-16T07:45:28.548Z,102137.99
2019-02-16T07:47:59.695Z,102143.75
2019-02-16T07:50:30.894Z,102142.72
2019-02-16T07:53:02.152Z,102145.52
2019-02-16T07:55:33.310Z,102154.88
2019-02-16T07:58:19.478Z,102162.94
2019-02-16T08:01:02.241Z,102159.70
2019-02-16T08:03:33.426Z,102152.16
2019-02-16T08:06:04.587Z,102152.64
2019-02-16T08:08:35.824Z,102150.98
2019-02-16T08:11:18.875Z,102147.23
2019-02-16T08:13:52.795Z,102148.09
2019-02-16T08:16:24.717Z,102148.09
2019-02-16T08:19:05.261Z,102135.89
2019-02-16T08:21:37.801Z,102134.73
2019-02-16T08:24:24.701Z,102142.88
2019-02-16T08:27:12.590Z,102139.86
2019-02-16T08:29:53.688Z,102140.27
2019-02-16T08:32:31.450Z,102137.44
2019-02-16T08:35:08.668Z,102137.08
2019-02-16T08:37:39.867Z,102138.70
2019-02-16T08:40:20.308Z,102136.20
2019-02-16T08:42:51.468Z,102136.48
2019-02-16T08:45:34.453Z,102138.91
2019-02-16T08:48:08.305Z,102144.03
2019-02-16T08:50:39.469Z,102138.79
2019-02-16T08:53:13.310Z,102135.28
2019-02-16T08:55:47.529Z,102145.05
2019-02-16T08:58:19.111Z,102147.88
2019-02-16T09:00:52.985Z,102142.81
2019-02-16T09:03:27.283Z,102150.80
2019-02-16T09:06:00.524Z,102135.79
2019-02-16T09:08:35.938Z,102134.83
2019-02-16T09:11:08.216Z,102128.58
2019-02-16T09:13:51.361Z,102113.90
2019-02-16T09:16:31.518Z,102121.33
2019-02-16T09:19:05.739Z,102124.11
2019-02-16T09:21:49.979Z,102133.17
2019-02-16T09:24:21.140Z,102140.80
2019-02-16T09:27:05.644Z,102130.25
2019-02-16T09:29:45.781Z,102128.52
2019-02-16T09:32:19.796Z,102119.94
2019-02-16T09:34:50.936Z,102130.83
2019-02-16T09:37:39.238Z,102124.33
2019-02-16T09:40:10.528Z,102120.93
2019-02-16T09:42:42.566Z,102119.70
2019-02-16T09:45:29.787Z,102119.23
2019-02-16T09:48:06.753Z,102117.24
2019-02-16T09:50:52.786Z,102113.06
2019-02-16T09:53:26.999Z,102121.75
2019-02-16T09:55:58.632Z,102112.06
2019-02-16T09:58:44.551Z,102116.78
2019-02-16T10:01:15.744Z,102126.39
2019-02-16T10:03:55.993Z,102118.08
2019-02-16T10:06:27.239Z,102112.45
2019-02-16T10:09:01.100Z,102118.30
2019-02-16T10:11:32.260Z,102118.09
2019-02-16T10:14:08.992Z,102117.16
2019-02-16T10:16:55.940Z,102123.23
2019-02-16T10:19:29.975Z,102119.14
2019-02-16T10:22:01.285Z,102108.66
2019-02-16T10:24:35.177Z,102123.41
2019-02-16T10:27:21.038Z,102123.21
2019-02-16T10:29:52.452Z,102127.71
2019-02-16T10:32:24.493Z,102124.32
2019-02-16T10:35:05.020Z,102132.49
2019-02-16T10:37:42.044Z,102138.01
2019-02-16T10:40:29.158Z,102137.52
2019-02-16T10:43:01.122Z,102127.84
2019-02-16T10:45:50.906Z,102133.16
2019-02-16T10:48:24.691Z,102139.01
2019-02-16T10:51:01.814Z,102134.19
2019-02-16T10:53:38.606Z,102121.73
2019-02-16T10:56:12.764Z,102135.05
2019-02-16T10:58:56.882Z,102131.76
2019-02-16T11:01:28.553Z,102126.09
2019-02-16T11:03:59.746Z,102114.31
2019-02-16T11:06:37.177Z,102125.43
2019-02-16T11:09:10.059Z,102126.58
2019-02-16T11:11:41.218Z,102120.69
2019-02-16T11:14:30.394Z,102120.83
2019-02-16T11:17:07.352Z,102111.36
2019-02-16T11:19:44.193Z,102105.13
2019-02-16T11:22:17.983Z,102109.67
2019-02-16T11:24:49.128Z,102106.06
2019-02-16T11:27:23.146Z,102105.13
2019-02-16T11:29:54.353Z,102108.06
2019-02-16T11:32:41.198Z,102108.37
2019-02-16T11:35:12.496Z,102099.19
2019-02-16T11:37:52.752Z,102092.62
2019-02-16T11:40:29.636Z,102090.42
2019-02-16T11:43:10.003Z,102090.08
2019-02-16T11:45:47.113Z,102094.35
2019-02-16T11:48:34.343Z,102092.03
2019-02-16T11:51:03.614Z,102093.71
2019-02-16T11:53:34.771Z,102088.93
2019-02-16T11:56:10.046Z,102091.52
2019-02-16T11:58:41.202Z,102093.45
2019-02-16T12:01:15.080Z,102091.52
2019-02-16T12:03:55.519Z,102092.09
2019-02-16T12:06:29.451Z,102094.49
2019-02-16T12:09:16.431Z,102091.77
2019-02-16T12:11:50.549Z,102092.83
2019-02-16T12:14:39.297Z,102084.88
2019-02-16T12:17:13.183Z,102083.97
2019-02-16T12:19:47.295Z,102079.03
2019-02-16T12:22:21.180Z,102076.21
2019-02-16T12:25:04.982Z,102090.83
2019-02-16T12:27:44.114Z,102080.80
2019-02-16T12:30:32.843Z,102082.06
2019-02-16T12:33:11.334Z,102074.23
2019-02-16T12:35:43.580Z,102070.60
2019-02-16T12:38:31.016Z,102063.85
2019-02-16T12:41:14.683Z,102064.93
2019-02-16T12:43:45.818Z,102064.14
2019-02-16T12:46:16.988Z,102062.31
2019-02-16T12:49:06.379Z,102053.47
2019-02-16T12:51:46.053Z,102051.12
2019-02-16T12:54:20.237Z,102050.14
2019-02-16T12:56:53.952Z,102052.28
2019-02-16T12:59:43.105Z,102041.95
2019-02-16T13:02:18.262Z,102049.53
2019-02-16T13:04:56.842Z,102039.70
2019-02-16T13:07:28.013Z,102040.50
2019-02-16T13:09:59.176Z,102044.80
2019-02-16T13:12:46.592Z,102045.54
2019-02-16T13:15:33.901Z,102028.45
2019-02-16T13:18:14.046Z,102031.19
2019-02-16T13:21:00.209Z,102031.22
2019-02-16T13:23:49.485Z,102033.84
2019-02-16T13:26:26.935Z,102036.48
2019-02-16T13:28:58.160Z,102031.81
2019-02-16T13:31:30.213Z,102036.49
2019-02-16T13:34:17.821Z,102025.48
2019-02-16T13:36:52.493Z,102027.27
2019-02-16T13:39:24.941Z,102014.05
2019-02-16T13:41:58.890Z,102019.58
2019-02-16T13:44:32.616Z,102013.17
2019-02-16T13:47:09.499Z,102015.19
2019-02-16T13:49:40.721Z,102010.79
2019-02-16T13:52:14.587Z,102013.09
2019-02-16T13:54:53.932Z,102012.63
2019-02-16T13:57:30.672Z,102009.67
2019-02-16T14:00:07.741Z,102001.28
2019-02-16T14:02:41.875Z,102005.86
2019-02-16T14:05:25.162Z,102001.26
2019-02-16T14:08:09.437Z,102001.90
2019-02-16T14:10:46.947Z,101996.18
2019-02-16T14:13:21.009Z,101995.91
2019-02-16T14:15:55.033Z,101996.97
2019-02-16T14:18:24.573Z,101989.81
2019-02-16T14:20:54.085Z,101991.83
2019-02-16T14:23:23.627Z,101984.16
2019-02-16T14:25:53.195Z,101986.97
2019-02-16T14:28:23.308Z,101980.27
2019-02-16T14:30:53.066Z,101986.94
2019-02-16T14:33:22.653Z,101986.84
2019-02-16T14:35:52.275Z,101977.20
2019-02-16T14:38:23.455Z,101983.88
2019-02-16T14:40:53.041Z,101983.00
2019-02-16T14:43:22.581Z,101986.00
2019-02-16T14:45:52.109Z,101980.91
2019-02-16T14:48:21.642Z,101988.37
2019-02-16T14:50:51.145Z,101982.19
2019-02-16T14:53:21.039Z,101986.16
2019-02-16T14:55:54.134Z,101984.20
2019-02-16T14:58:21.788Z,101986.46
2019-02-16T15:00:51.329Z,101974.55
2019-02-16T15:03:20.878Z,101979.66
2019-02-16T15:05:50.384Z,101973.61
2019-02-16T15:08:19.935Z,101973.36
2019-02-16T15:10:49.432Z,101971.69
2019-02-16T15:13:18.953Z,101968.13
2019-02-16T15:15:48.692Z,101963.51
2019-02-16T15:18:18.219Z,101974.09
2019-02-16T15:20:48.563Z,101974.09
2019-02-16T15:23:18.097Z,101971.58
2019-02-16T15:25:47.720Z,101968.91
2019-02-16T15:28:17.246Z,101965.98
2019-02-16T15:30:46.782Z,101972.59
2019-02-16T15:33:16.384Z,101970.59
2019-02-16T15:35:47.639Z,101972.45
2019-02-16T15:38:17.780Z,101976.49
2019-02-16T15:40:47.366Z,101973.76
2019-02-16T15:43:16.941Z,101976.33
2019-02-16T15:45:46.580Z,101978.56
2019-02-16T15:48:16.160Z,101979.48
2019-02-16T15:50:45.683Z,101974.96
2019-02-16T15:53:15.318Z,101974.97
2019-02-16T15:55:45.203Z,101987.62
2019-02-16T15:58:14.729Z,101986.47
2019-02-16T16:00:44.453Z,101986.05
2019-02-16T16:03:14.019Z,101986.98
2019-02-16T16:05:43.552Z,101983.91
2019-02-16T16:08:15.160Z,101985.56
2019-02-16T16:10:49.026Z,101989.42
2019-02-16T16:13:20.915Z,101983.23
2019-02-16T16:15:52.208Z,101980.48
2019-02-16T16:18:39.742Z,101981.09
2019-02-16T16:21:13.665Z,101980.25
2019-02-16T16:24:01.050Z,101981.88
2019-02-16T16:26:48.619Z,101977.12
2019-02-16T16:29:20.041Z,101973.27
2019-02-16T16:32:06.581Z,101984.83
2019-02-16T16:34:42.492Z,101980.72
2019-02-16T16:37:13.777Z,101981.03
2019-02-16T16:39:47.384Z,101985.48
2019-02-16T16:42:25.061Z,101989.91
2019-02-16T16:44:59.088Z,101998.09
2019-02-16T16:47:30.327Z,101997.31
2019-02-16T16:50:18.987Z,102003.16
2019-02-16T16:52:51.204Z,102006.87
2019-02-16T16:55:22.922Z,102009.61
2019-02-16T16:57:54.501Z,102019.87
2019-02-16T17:00:41.702Z,102024.31
2019-02-16T17:03:16.893Z,102028.42
2019-02-16T17:05:48.341Z,102028.86
2019-02-16T17:08:28.561Z,102028.71
2019-02-16T17:11:00.078Z,102028.71
2019-02-16T17:13:40.120Z,102035.50
2019-02-16T17:16:14.069Z,102029.66
2019-02-16T17:18:47.963Z,102033.73
2019-02-16T17:21:20.396Z,102038.55
2019-02-16T17:24:04.187Z,102042.59
2019-02-16T17:26:38.989Z,102043.80
2019-02-16T17:29:10.224Z,102046.61
2019-02-16T17:31:44.388Z,102051.05
2019-02-16T17:34:13.708Z,102046.13
2019-02-16T17:36:44.881Z,102042.97
2019-02-16T17:39:16.742Z,102053.17
2019-02-16T17:41:57.101Z,102051.47
2019-02-16T17:44:37.006Z,102051.75
2019-02-16T17:47:14.002Z,102060.22
2019-02-16T17:49:56.775Z,102061.83
2019-02-16T17:52:30.781Z,102063.98
2019-02-16T17:55:07.635Z,102062.86
2019-02-16T17:57:41.688Z,102066.36
2019-02-16T18:00:29.456Z,102068.15
2019-02-16T18:02:58.808Z,102066.36
2019-02-16T18:05:45.999Z,102071.15
2019-02-16T18:08:23.305Z,102066.00
2019-02-16T18:10:57.068Z,102063.92
2019-02-16T18:13:38.641Z,102068.58
2019-02-16T18:16:09.814Z,102069.03
2019-02-16T18:18:40.975Z,102073.27
2019-02-16T18:21:12.167Z,102062.94
2019-02-16T18:23:49.266Z,102064.89
2019-02-16T18:26:23.486Z,102063.59
2019-02-16T18:29:02.000Z,102064.63
2019-02-16T18:31:32.514Z,102063.88
2019-02-16T18:34:03.713Z,102063.17
2019-02-16T18:36:47.028Z,102058.03
2019-02-16T18:39:20.986Z,102058.59
2019-02-16T18:41:58.190Z,102061.18
2019-02-16T18:44:27.492Z,102065.20
2019-02-16T18:47:11.060Z,102071.70
2019-02-16T18:50:00.348Z,102076.27
2019-02-16T18:52:40.523Z,102074.33
2019-02-16T18:55:20.980Z,102075.26
2019-02-16T18:58:08.359Z,102071.16
2019-02-16T19:00:45.041Z,102076.67
2019-02-16T19:03:25.843Z,102071.91
2019-02-16T19:05:57.103Z,102072.62
2019-02-16T19:08:33.795Z,102069.73
2019-02-16T19:11:14.991Z,102068.73
2019-02-16T19:14:01.319Z,102066.72
2019-02-16T19:16:48.700Z,102068.05
2019-02-16T19:19:21.879Z,102068.59
2019-02-16T19:22:09.290Z,102070.44
2019-02-16T19:24:47.367Z,102063.48
2019-02-16T19:27:18.544Z,102066.15
2019-02-16T19:30:04.520Z,102072.88
2019-02-16T19:32:42.760Z,102066.11
2019-02-16T19:35:26.588Z,102068.00
2019-02-16T19:37:57.901Z,102067.59
2019-02-16T19:40:34.845Z,102073.20
2019-02-16T19:43:09.054Z,102064.50
2019-02-16T19:45:46.083Z,102066.67
2019-02-16T19:48:23.006Z,102071.72
2019-02-16T19:51:11.233Z,102063.80
2019-02-16T19:53:42.452Z,102062.44
2019-02-16T19:56:11.838Z,102060.80
2019-02-16T19:58:49.761Z,102068.16
2019-02-16T20:01:21.008Z,102070.19
2019-02-16T20:03:58.316Z,102066.02
2019-02-16T20:06:31.935Z,102071.02
2019-02-16T20:09:05.876Z,102066.79
2019-02-16T20:11:42.837Z,102065.52
2019-02-16T20:14:23.911Z,102069.47
2019-02-16T20:17:00.939Z,102076.97
2019-02-16T20:19:30.266Z,102081.40
2019-02-16T20:22:10.520Z,102085.28
2019-02-16T20:24:46.341Z,102077.92
2019-02-16T20:27:17.503Z,102074.89
2019-02-16T20:30:09.694Z,102078.23
2019-02-16T20:32:53.040Z,102078.41
2019-02-16T20:35:36.262Z,102084.00
2019-02-16T20:38:26.788Z,102079.15
2019-02-16T20:41:05.632Z,102083.12
2019-02-16T20:43:52.714Z,102078.96
2019-02-16T20:46:26.346Z,102086.38
2019-02-16T20:48:58.816Z,102088.38
2019-02-16T20:51:28.259Z,102087.44
2019-02-16T20:54:00.298Z,102092.86
2019-02-16T20:56:31.464Z,102093.20
2019-02-16T20:59:15.706Z,102086.25
2019-02-16T21:01:55.726Z,102091.66
2019-02-16T21:04:34.931Z,102094.96
2019-02-16T21:07:08.864Z,102102.62
2019-02-16T21:09:56.303Z,102094.06
2019-02-16T21:12:37.203Z,102093.56
2019-02-16T21:15:20.374Z,102097.87
2019-02-16T21:17:51.604Z,102094.37
2019-02-16T21:20:28.273Z,102098.70
2019-02-16T21:23:14.335Z,102094.87
2019-02-16T21:25:48.306Z,102095.69
2019-02-16T21:28:24.296Z,102104.41
2019-02-16T21:30:55.297Z,102108.30
2019-02-16T21:33:29.130Z,102109.17
2019-02-16T21:36:01.144Z,102105.51
2019-02-16T21:38:34.960Z,102105.98
2019-02-16T21:41:08.628Z,102105.42
2019-02-16T21:43:51.460Z,102105.98
2019-02-16T21:46:22.982Z,102105.31
2019-02-16T21:48:57.140Z,102109.35
2019-02-16T21:51:31.473Z,102106.28
2019-02-16T21:54:05.425Z,102100.87
2019-02-16T21:56:51.885Z,102101.73
2019-02-16T21:59:21.194Z,102098.78
2019-02-16T22:02:07.312Z,102094.37
2019-02-16T22:04:47.506Z,102096.70
2019-02-16T22:07:19.125Z,102099.28
2019-02-16T22:09:53.040Z,102097.31
2019-02-16T22:12:40.492Z,102096.82
2019-02-16T22:15:10.736Z,102096.33
2019-02-16T22:17:40.281Z,102105.55
2019-02-16T22:20:10.943Z,102094.62
2019-02-16T22:22:40.454Z,102105.16
2019-02-16T22:25:10.325Z,102107.74
2019-02-16T22:27:40.068Z,102104.42
2019-02-16T22:30:11.813Z,102105.53
2019-02-16T22:32:41.375Z,102103.67
2019-02-16T22:35:11.366Z,102105.12
2019-02-16T22:37:40.959Z,102092.22
2019-02-16T22:40:10.794Z,102094.67
2019-02-16T22:42:40.599Z,102099.42
2019-02-16T22:45:12.566Z,102091.57
2019-02-16T22:47:42.271Z,102089.77
2019-02-16T22:50:12.304Z,102089.43
2019-02-16T22:52:41.852Z,102092.34
2019-02-16T22:55:11.439Z,102094.89
2019-02-16T22:57:40.986Z,102091.91
2019-02-16T23:00:16.866Z,102095.70
2019-02-16T23:02:47.081Z,102093.39
2019-02-16T23:05:16.746Z,102099.91
2019-02-16T23:07:46.435Z,102101.49
2019-02-16T23:10:16.105Z,102092.66
2019-02-16T23:12:45.713Z,102099.57
2019-02-16T23:15:15.905Z,102097.23
2019-02-16T23:17:48.490Z,102090.99
2019-02-16T23:20:18.160Z,102094.52
2019-02-16T23:22:47.733Z,102092.41
2019-02-16T23:25:17.332Z,102099.06
2019-02-16T23:27:46.879Z,102094.37
2019-02-16T23:30:16.440Z,102091.70
2019-02-16T23:32:46.134Z,102094.17
2019-02-16T23:35:15.738Z,102091.44
2019-02-16T23:37:45.817Z,102090.91
2019-02-16T23:40:15.624Z,102090.69
2019-02-16T23:42:45.484Z,102100.52
2019-02-16T23:45:15.138Z,102091.30
2019-02-16T23:47:44.760Z,102095.76
2019-02-16T23:50:14.362Z,102097.94
2019-02-16T23:52:44.009Z,102094.75
2019-02-16T23:55:13.907Z,102098.97
2019-02-16T23:57:43.417Z,102106.86
